sensor_id;sensor_type;location;lat;lon;timestamp;temperature;humidity
14008;DHT22;61651;45.508;12.232;2023-08-30T00:02:46;21.60;99.90
14008;DHT22;61651;45.508;12.232;2023-08-30T00:05:50;21.70;99.90
14008;DHT22;61651;45.508;12.232;2023-08-30T00:08:52;21.70;99.90
14008;DHT22;61651;45.508;12.232;2023-08-30T00:11:54;21.70;99.90
14008;DHT22;61651;45.508;12.232;2023-08-30T00:14:56;21.70;99.90
14008;DHT22;61651;45.508;12.232;2023-08-30T00:17:58;21.70;99.90
14008;DHT22;61651;45.508;12.232;2023-08-30T00:21:01;21.80;99.90
14008;DHT22;61651;45.508;12.232;2023-08-30T00:24:04;21.80;99.90
14008;DHT22;61651;45.508;12.232;2023-08-30T00:27:06;21.80;99.90
14008;DHT22;61651;45.508;12.232;2023-08-30T00:30:09;21.80;99.90
14008;DHT22;61651;45.508;12.232;2023-08-30T00:33:11;21.80;99.90
14008;DHT22;61651;45.508;12.232;2023-08-30T00:36:15;21.80;99.90
14008;DHT22;61651;45.508;12.232;2023-08-30T00:39:17;21.80;99.90
14008;DHT22;61651;45.508;12.232;2023-08-30T00:42:20;21.80;99.90
14008;DHT22;61651;45.508;12.232;2023-08-30T00:45:21;21.80;99.90
14008;DHT22;61651;45.508;12.232;2023-08-30T00:48:23;21.80;99.90
14008;DHT22;61651;45.508;12.232;2023-08-30T00:51:27;21.80;99.90
14008;DHT22;61651;45.508;12.232;2023-08-30T00:54:29;21.80;99.90
14008;DHT22;61651;45.508;12.232;2023-08-30T00:57:31;21.80;99.90
14008;DHT22;61651;45.508;12.232;2023-08-30T01:00:34;21.90;99.90
14008;DHT22;61651;45.508;12.232;2023-08-30T01:03:36;21.80;99.90
14008;DHT22;61651;45.508;12.232;2023-08-30T01:06:39;21.80;99.90
14008;DHT22;61651;45.508;12.232;2023-08-30T01:09:41;21.80;99.90
14008;DHT22;61651;45.508;12.232;2023-08-30T01:12:47;21.80;99.90
14008;DHT22;61651;45.508;12.232;2023-08-30T01:15:51;21.80;99.90
14008;DHT22;61651;45.508;12.232;2023-08-30T01:18:56;21.80;99.90
14008;DHT22;61651;45.508;12.232;2023-08-30T01:22:05;21.80;99.90
14008;DHT22;61651;45.508;12.232;2023-08-30T01:25:20;21.80;99.90
14008;DHT22;61651;45.508;12.232;2023-08-30T01:28:30;21.80;99.90
14008;DHT22;61651;45.508;12.232;2023-08-30T01:31:33;21.80;99.90
14008;DHT22;61651;45.508;12.232;2023-08-30T01:34:37;21.70;99.90
14008;DHT22;61651;45.508;12.232;2023-08-30T01:37:40;21.70;99.90
14008;DHT22;61651;45.508;12.232;2023-08-30T01:40:43;21.70;99.90
14008;DHT22;61651;45.508;12.232;2023-08-30T01:43:48;21.70;99.90
14008;DHT22;61651;45.508;12.232;2023-08-30T01:46:51;21.70;99.90
14008;DHT22;61651;45.508;12.232;2023-08-30T01:49:54;21.70;99.90
14008;DHT22;61651;45.508;12.232;2023-08-30T01:52:57;21.60;99.90
14008;DHT22;61651;45.508;12.232;2023-08-30T01:55:59;21.60;99.90
14008;DHT22;61651;45.508;12.232;2023-08-30T01:59:02;21.60;99.90
14008;DHT22;61651;45.508;12.232;2023-08-30T02:02:04;21.60;99.90
14008;DHT22;61651;45.508;12.232;2023-08-30T02:05:07;21.60;99.90
14008;DHT22;61651;45.508;12.232;2023-08-30T02:08:14;21.60;99.90
14008;DHT22;61651;45.508;12.232;2023-08-30T02:11:21;21.60;99.90
14008;DHT22;61651;45.508;12.232;2023-08-30T02:14:26;21.50;99.90
14008;DHT22;61651;45.508;12.232;2023-08-30T02:17:29;21.50;99.90
14008;DHT22;61651;45.508;12.232;2023-08-30T02:20:32;21.50;99.90
14008;DHT22;61651;45.508;12.232;2023-08-30T02:23:34;21.50;99.90
14008;DHT22;61651;45.508;12.232;2023-08-30T02:26:36;21.50;99.90
14008;DHT22;61651;45.508;12.232;2023-08-30T02:29:39;21.50;99.90
14008;DHT22;61651;45.508;12.232;2023-08-30T02:32:41;21.50;99.90
14008;DHT22;61651;45.508;12.232;2023-08-30T02:35:43;21.50;99.90
14008;DHT22;61651;45.508;12.232;2023-08-30T02:38:45;21.40;99.90
14008;DHT22;61651;45.508;12.232;2023-08-30T02:41:48;21.40;99.90
14008;DHT22;61651;45.508;12.232;2023-08-30T02:44:51;21.40;99.90
14008;DHT22;61651;45.508;12.232;2023-08-30T02:47:55;21.40;99.90
14008;DHT22;61651;45.508;12.232;2023-08-30T02:50:57;21.40;99.90
14008;DHT22;61651;45.508;12.232;2023-08-30T02:53:59;21.40;99.90
14008;DHT22;61651;45.508;12.232;2023-08-30T02:57:01;21.30;99.90
14008;DHT22;61651;45.508;12.232;2023-08-30T03:00:06;21.30;99.90
14008;DHT22;61651;45.508;12.232;2023-08-30T03:03:09;21.30;99.90
14008;DHT22;61651;45.508;12.232;2023-08-30T03:06:11;21.20;99.90
14008;DHT22;61651;45.508;12.232;2023-08-30T03:09:14;21.20;99.90
14008;DHT22;61651;45.508;12.232;2023-08-30T03:12:17;21.20;99.90
14008;DHT22;61651;45.508;12.232;2023-08-30T03:15:20;21.10;99.90
14008;DHT22;61651;45.508;12.232;2023-08-30T03:18:22;21.10;99.90
14008;DHT22;61651;45.508;12.232;2023-08-30T03:21:24;21.00;99.90
14008;DHT22;61651;45.508;12.232;2023-08-30T03:24:26;21.10;99.90
14008;DHT22;61651;45.508;12.232;2023-08-30T03:27:28;21.10;99.90
14008;DHT22;61651;45.508;12.232;2023-08-30T03:30:32;21.00;99.90
14008;DHT22;61651;45.508;12.232;2023-08-30T03:33:34;21.00;99.90
14008;DHT22;61651;45.508;12.232;2023-08-30T03:36:36;21.10;99.90
14008;DHT22;61651;45.508;12.232;2023-08-30T03:39:38;21.10;99.90
14008;DHT22;61651;45.508;12.232;2023-08-30T03:42:41;21.00;99.90
14008;DHT22;61651;45.508;12.232;2023-08-30T03:45:44;21.10;99.90
14008;DHT22;61651;45.508;12.232;2023-08-30T03:48:46;21.00;99.90
14008;DHT22;61651;45.508;12.232;2023-08-30T03:51:48;21.10;99.90
14008;DHT22;61651;45.508;12.232;2023-08-30T03:54:50;21.10;99.90
14008;DHT22;61651;45.508;12.232;2023-08-30T03:57:52;21.00;99.90
14008;DHT22;61651;45.508;12.232;2023-08-30T04:00:56;21.00;99.90
14008;DHT22;61651;45.508;12.232;2023-08-30T04:03:58;21.00;99.90
14008;DHT22;61651;45.508;12.232;2023-08-30T04:07:00;21.00;99.90
14008;DHT22;61651;45.508;12.232;2023-08-30T04:10:03;20.90;99.90
14008;DHT22;61651;45.508;12.232;2023-08-30T04:13:08;20.90;99.90
14008;DHT22;61651;45.508;12.232;2023-08-30T04:16:11;20.80;99.90
14008;DHT22;61651;45.508;12.232;2023-08-30T04:19:13;20.80;99.90
14008;DHT22;61651;45.508;12.232;2023-08-30T04:22:15;20.80;99.90
14008;DHT22;61651;45.508;12.232;2023-08-30T04:25:17;20.80;99.90
14008;DHT22;61651;45.508;12.232;2023-08-30T04:28:19;20.70;99.90
14008;DHT22;61651;45.508;12.232;2023-08-30T04:31:23;20.70;99.90
14008;DHT22;61651;45.508;12.232;2023-08-30T04:34:25;20.70;99.90
14008;DHT22;61651;45.508;12.232;2023-08-30T04:37:30;20.80;99.90
14008;DHT22;61651;45.508;12.232;2023-08-30T04:40:33;20.80;99.90
14008;DHT22;61651;45.508;12.232;2023-08-30T04:43:35;20.90;99.90
14008;DHT22;61651;45.508;12.232;2023-08-30T04:46:38;20.90;99.90
14008;DHT22;61651;45.508;12.232;2023-08-30T04:49:40;20.80;99.90
14008;DHT22;61651;45.508;12.232;2023-08-30T04:52:42;20.80;99.90
14008;DHT22;61651;45.508;12.232;2023-08-30T04:55:44;20.90;99.90
14008;DHT22;61651;45.508;12.232;2023-08-30T06:34:38;21.10;99.90
14008;DHT22;61651;45.508;12.232;2023-08-30T06:37:40;21.10;99.90
14008;DHT22;61651;45.508;12.232;2023-08-30T06:40:44;21.10;99.90
14008;DHT22;61651;45.508;12.232;2023-08-30T06:43:46;21.20;99.90
14008;DHT22;61651;45.508;12.232;2023-08-30T06:46:48;21.20;99.90
14008;DHT22;61651;45.508;12.232;2023-08-30T06:49:52;21.20;99.90
14008;DHT22;61651;45.508;12.232;2023-08-30T06:52:54;21.20;99.90
14008;DHT22;61651;45.508;12.232;2023-08-30T06:55:59;21.20;99.90
14008;DHT22;61651;45.508;12.232;2023-08-30T06:59:01;21.20;99.90
14008;DHT22;61651;45.508;12.232;2023-08-30T07:02:04;21.20;99.90
14008;DHT22;61651;45.508;12.232;2023-08-30T07:05:08;21.30;99.90
14008;DHT22;61651;45.508;12.232;2023-08-30T07:08:10;21.30;99.90
14008;DHT22;61651;45.508;12.232;2023-08-30T07:11:12;21.10;99.90
14008;DHT22;61651;45.508;12.232;2023-08-30T07:14:14;21.10;99.90
14008;DHT22;61651;45.508;12.232;2023-08-30T07:17:16;21.20;99.90
14008;DHT22;61651;45.508;12.232;2023-08-30T07:20:19;21.20;99.90
14008;DHT22;61651;45.508;12.232;2023-08-30T07:23:21;21.20;99.90
14008;DHT22;61651;45.508;12.232;2023-08-30T07:26:23;21.20;99.90
14008;DHT22;61651;45.508;12.232;2023-08-30T07:29:25;21.10;99.90
14008;DHT22;61651;45.508;12.232;2023-08-30T07:32:29;21.10;99.90
14008;DHT22;61651;45.508;12.232;2023-08-30T07:35:32;21.00;99.90
14008;DHT22;61651;45.508;12.232;2023-08-30T07:38:35;20.90;99.90
14008;DHT22;61651;45.508;12.232;2023-08-30T07:41:37;20.70;99.90
14008;DHT22;61651;45.508;12.232;2023-08-30T07:44:38;20.70;99.90
14008;DHT22;61651;45.508;12.232;2023-08-30T07:47:40;20.50;99.90
14008;DHT22;61651;45.508;12.232;2023-08-30T07:50:44;20.70;99.90
14008;DHT22;61651;45.508;12.232;2023-08-30T07:53:46;20.80;99.90
14008;DHT22;61651;45.508;12.232;2023-08-30T07:56:48;20.90;99.90
14008;DHT22;61651;45.508;12.232;2023-08-30T07:59:50;20.90;99.90
14008;DHT22;61651;45.508;12.232;2023-08-30T08:02:53;21.00;99.90
14008;DHT22;61651;45.508;12.232;2023-08-30T08:05:58;21.00;99.90
14008;DHT22;61651;45.508;12.232;2023-08-30T08:09:01;20.90;99.90
14008;DHT22;61651;45.508;12.232;2023-08-30T08:12:03;20.90;99.90
14008;DHT22;61651;45.508;12.232;2023-08-30T08:15:06;21.00;99.90
14008;DHT22;61651;45.508;12.232;2023-08-30T08:18:08;21.10;99.90
14008;DHT22;61651;45.508;12.232;2023-08-30T08:21:12;21.20;99.90
14008;DHT22;61651;45.508;12.232;2023-08-30T08:24:14;21.30;99.90
14008;DHT22;61651;45.508;12.232;2023-08-30T08:27:16;21.30;99.90
14008;DHT22;61651;45.508;12.232;2023-08-30T08:30:18;21.30;99.90
14008;DHT22;61651;45.508;12.232;2023-08-30T08:33:21;21.30;99.90
14008;DHT22;61651;45.508;12.232;2023-08-30T08:36:26;21.30;99.90
14008;DHT22;61651;45.508;12.232;2023-08-30T08:39:28;21.30;99.90
14008;DHT22;61651;45.508;12.232;2023-08-30T08:42:32;21.40;99.90
14008;DHT22;61651;45.508;12.232;2023-08-30T08:45:34;21.50;99.90
14008;DHT22;61651;45.508;12.232;2023-08-30T08:48:40;21.60;99.90
14008;DHT22;61651;45.508;12.232;2023-08-30T08:51:45;21.70;99.90
14008;DHT22;61651;45.508;12.232;2023-08-30T08:54:47;21.80;99.90
14008;DHT22;61651;45.508;12.232;2023-08-30T08:57:49;21.80;99.90
14008;DHT22;61651;45.508;12.232;2023-08-30T09:00:51;21.90;99.90
14008;DHT22;61651;45.508;12.232;2023-08-30T09:03:54;21.90;99.90
14008;DHT22;61651;45.508;12.232;2023-08-30T09:06:58;21.90;99.90
14008;DHT22;61651;45.508;12.232;2023-08-30T09:10:00;21.90;99.90
14008;DHT22;61651;45.508;12.232;2023-08-30T09:13:03;22.10;99.90
14008;DHT22;61651;45.508;12.232;2023-08-30T09:16:11;22.20;99.90
14008;DHT22;61651;45.508;12.232;2023-08-30T09:19:20;22.30;99.90
14008;DHT22;61651;45.508;12.232;2023-08-30T09:22:24;22.30;99.90
14008;DHT22;61651;45.508;12.232;2023-08-30T09:25:27;22.40;99.90
14008;DHT22;61651;45.508;12.232;2023-08-30T09:28:30;22.40;99.90
14008;DHT22;61651;45.508;12.232;2023-08-30T09:31:34;22.50;99.90
14008;DHT22;61651;45.508;12.232;2023-08-30T09:34:45;22.50;99.90
14008;DHT22;61651;45.508;12.232;2023-08-30T09:37:50;22.60;99.90
14008;DHT22;61651;45.508;12.232;2023-08-30T09:41:03;22.70;99.90
14008;DHT22;61651;45.508;12.232;2023-08-30T09:44:09;22.80;99.90
14008;DHT22;61651;45.508;12.232;2023-08-30T09:47:13;22.80;99.90
14008;DHT22;61651;45.508;12.232;2023-08-30T09:50:17;22.90;99.90
14008;DHT22;61651;45.508;12.232;2023-08-30T09:53:25;23.10;99.90
14008;DHT22;61651;45.508;12.232;2023-08-30T09:56:28;23.10;99.90
14008;DHT22;61651;45.508;12.232;2023-08-30T09:59:31;23.20;99.90
14008;DHT22;61651;45.508;12.232;2023-08-30T10:02:34;23.30;99.90
14008;DHT22;61651;45.508;12.232;2023-08-30T10:05:36;23.30;99.90
14008;DHT22;61651;45.508;12.232;2023-08-30T10:08:41;23.50;99.90
14008;DHT22;61651;45.508;12.232;2023-08-30T10:11:45;23.60;99.90
14008;DHT22;61651;45.508;12.232;2023-08-30T10:14:47;23.70;99.90
14008;DHT22;61651;45.508;12.232;2023-08-30T10:17:52;23.70;99.90
14008;DHT22;61651;45.508;12.232;2023-08-30T10:20:56;23.80;99.90
14008;DHT22;61651;45.508;12.232;2023-08-30T10:24:01;23.90;99.90
14008;DHT22;61651;45.508;12.232;2023-08-30T10:27:06;23.90;99.90
14008;DHT22;61651;45.508;12.232;2023-08-30T10:30:13;23.90;99.90
14008;DHT22;61651;45.508;12.232;2023-08-30T10:33:16;23.90;99.90
14008;DHT22;61651;45.508;12.232;2023-08-30T10:36:22;23.90;99.90
14008;DHT22;61651;45.508;12.232;2023-08-30T10:39:33;23.90;99.90
14008;DHT22;61651;45.508;12.232;2023-08-30T10:42:36;24.00;99.90
14008;DHT22;61651;45.508;12.232;2023-08-30T10:45:38;24.10;99.90
14008;DHT22;61651;45.508;12.232;2023-08-30T10:48:41;24.20;99.90
14008;DHT22;61651;45.508;12.232;2023-08-30T10:51:43;24.30;99.90
14008;DHT22;61651;45.508;12.232;2023-08-30T10:54:47;24.30;99.90
14008;DHT22;61651;45.508;12.232;2023-08-30T10:57:58;24.40;99.90
14008;DHT22;61651;45.508;12.232;2023-08-30T11:01:02;24.40;99.90
14008;DHT22;61651;45.508;12.232;2023-08-30T11:04:05;24.40;99.90
14008;DHT22;61651;45.508;12.232;2023-08-30T11:07:08;24.40;99.90
14008;DHT22;61651;45.508;12.232;2023-08-30T11:10:12;24.30;99.90
14008;DHT22;61651;45.508;12.232;2023-08-30T11:13:15;24.30;99.90
14008;DHT22;61651;45.508;12.232;2023-08-30T11:16:21;24.30;99.90
14008;DHT22;61651;45.508;12.232;2023-08-30T11:19:23;24.30;99.90
14008;DHT22;61651;45.508;12.232;2023-08-30T11:22:27;24.20;99.90
14008;DHT22;61651;45.508;12.232;2023-08-30T11:25:31;24.10;99.90
14008;DHT22;61651;45.508;12.232;2023-08-30T11:28:33;24.10;99.90
14008;DHT22;61651;45.508;12.232;2023-08-30T11:31:35;24.10;99.90
14008;DHT22;61651;45.508;12.232;2023-08-30T11:34:37;24.20;99.90
14008;DHT22;61651;45.508;12.232;2023-08-30T11:37:40;24.20;99.90
14008;DHT22;61651;45.508;12.232;2023-08-30T11:40:44;24.30;99.90
14008;DHT22;61651;45.508;12.232;2023-08-30T11:43:47;24.40;99.90
14008;DHT22;61651;45.508;12.232;2023-08-30T11:46:51;24.40;99.90
14008;DHT22;61651;45.508;12.232;2023-08-30T11:49:59;24.40;99.90
14008;DHT22;61651;45.508;12.232;2023-08-30T11:53:02;24.40;99.90
14008;DHT22;61651;45.508;12.232;2023-08-30T11:56:07;24.40;99.90
14008;DHT22;61651;45.508;12.232;2023-08-30T11:59:18;24.40;99.90
14008;DHT22;61651;45.508;12.232;2023-08-30T12:02:22;24.50;99.90
14008;DHT22;61651;45.508;12.232;2023-08-30T12:05:24;24.60;99.90
14008;DHT22;61651;45.508;12.232;2023-08-30T12:08:27;24.70;99.90
14008;DHT22;61651;45.508;12.232;2023-08-30T12:11:32;24.70;99.90
14008;DHT22;61651;45.508;12.232;2023-08-30T12:14:34;24.80;99.60
14008;DHT22;61651;45.508;12.232;2023-08-30T12:17:36;24.90;99.90
14008;DHT22;61651;45.508;12.232;2023-08-30T12:20:38;25.00;99.40
14008;DHT22;61651;45.508;12.232;2023-08-30T12:23:40;25.00;99.60
14008;DHT22;61651;45.508;12.232;2023-08-30T12:26:43;25.10;99.40
14008;DHT22;61651;45.508;12.232;2023-08-30T12:29:45;25.20;99.80
14008;DHT22;61651;45.508;12.232;2023-08-30T12:32:48;25.20;99.50
14008;DHT22;61651;45.508;12.232;2023-08-30T12:35:50;25.30;99.20
14008;DHT22;61651;45.508;12.232;2023-08-30T12:38:52;25.20;98.90
14008;DHT22;61651;45.508;12.232;2023-08-30T12:41:56;25.30;98.90
14008;DHT22;61651;45.508;12.232;2023-08-30T12:44:58;25.30;98.70
14008;DHT22;61651;45.508;12.232;2023-08-30T12:48:00;25.30;98.30
14008;DHT22;61651;45.508;12.232;2023-08-30T12:51:02;25.40;98.70
14008;DHT22;61651;45.508;12.232;2023-08-30T12:54:04;25.40;98.50
14008;DHT22;61651;45.508;12.232;2023-08-30T12:57:08;25.50;97.60
14008;DHT22;61651;45.508;12.232;2023-08-30T13:00:11;25.40;98.00
14008;DHT22;61651;45.508;12.232;2023-08-30T13:03:13;25.50;98.20
14008;DHT22;61651;45.508;12.232;2023-08-30T13:06:15;25.50;97.60
14008;DHT22;61651;45.508;12.232;2023-08-30T13:09:17;25.40;97.80
14008;DHT22;61651;45.508;12.232;2023-08-30T13:12:21;25.50;97.50
14008;DHT22;61651;45.508;12.232;2023-08-30T13:15:23;25.70;97.70
14008;DHT22;61651;45.508;12.232;2023-08-30T13:18:25;25.90;98.20
14008;DHT22;61651;45.508;12.232;2023-08-30T13:21:27;26.10;96.80
14008;DHT22;61651;45.508;12.232;2023-08-30T13:24:29;26.40;97.20
14008;DHT22;61651;45.508;12.232;2023-08-30T13:27:34;26.50;96.30
14008;DHT22;61651;45.508;12.232;2023-08-30T13:30:36;26.60;97.00
14008;DHT22;61651;45.508;12.232;2023-08-30T13:33:45;27.10;97.30
14008;DHT22;61651;45.508;12.232;2023-08-30T13:36:47;27.70;96.10
14008;DHT22;61651;45.508;12.232;2023-08-30T13:39:49;28.20;93.90
14008;DHT22;61651;45.508;12.232;2023-08-30T13:42:52;28.60;94.40
14008;DHT22;61651;45.508;12.232;2023-08-30T13:45:58;28.80;93.60
14008;DHT22;61651;45.508;12.232;2023-08-30T13:49:00;28.70;93.80
14008;DHT22;61651;45.508;12.232;2023-08-30T13:52:02;28.60;93.30
14008;DHT22;61651;45.508;12.232;2023-08-30T13:55:04;28.50;93.20
14008;DHT22;61651;45.508;12.232;2023-08-30T13:58:08;28.60;93.90
14008;DHT22;61651;45.508;12.232;2023-08-30T14:01:10;28.90;93.70
14008;DHT22;61651;45.508;12.232;2023-08-30T14:04:12;29.00;93.40
14008;DHT22;61651;45.508;12.232;2023-08-30T14:07:14;28.90;93.60
14008;DHT22;61651;45.508;12.232;2023-08-30T14:10:16;29.10;93.50
14008;DHT22;61651;45.508;12.232;2023-08-30T14:13:20;29.60;93.40
14008;DHT22;61651;45.508;12.232;2023-08-30T14:16:22;30.00;91.50
14008;DHT22;61651;45.508;12.232;2023-08-30T14:19:24;30.40;92.30
14008;DHT22;61651;45.508;12.232;2023-08-30T14:22:26;31.00;91.80
14008;DHT22;61651;45.508;12.232;2023-08-30T14:25:28;31.40;91.60
14008;DHT22;61651;45.508;12.232;2023-08-30T14:28:32;31.80;90.30
14008;DHT22;61651;45.508;12.232;2023-08-30T14:31:34;31.90;87.70
14008;DHT22;61651;45.508;12.232;2023-08-30T14:34:36;32.00;88.30
14008;DHT22;61651;45.508;12.232;2023-08-30T14:37:38;32.00;86.50
14008;DHT22;61651;45.508;12.232;2023-08-30T14:40:43;32.00;87.40
14008;DHT22;61651;45.508;12.232;2023-08-30T14:43:46;32.10;86.80
14008;DHT22;61651;45.508;12.232;2023-08-30T14:46:48;32.00;86.40
14008;DHT22;61651;45.508;12.232;2023-08-30T14:49:50;32.10;88.20
14008;DHT22;61651;45.508;12.232;2023-08-30T14:52:52;32.40;86.10
14008;DHT22;61651;45.508;12.232;2023-08-30T14:55:55;32.30;86.00
14008;DHT22;61651;45.508;12.232;2023-08-30T14:58:59;32.10;86.80
14008;DHT22;61651;45.508;12.232;2023-08-30T15:02:01;31.90;86.10
14008;DHT22;61651;45.508;12.232;2023-08-30T15:05:03;32.00;86.70
14008;DHT22;61651;45.508;12.232;2023-08-30T15:08:06;32.20;86.00
14008;DHT22;61651;45.508;12.232;2023-08-30T15:11:08;32.10;86.50
14008;DHT22;61651;45.508;12.232;2023-08-30T15:14:11;32.20;83.70
14008;DHT22;61651;45.508;12.232;2023-08-30T15:17:14;32.30;85.10
14008;DHT22;61651;45.508;12.232;2023-08-30T15:20:17;31.20;83.20
14008;DHT22;61651;45.508;12.232;2023-08-30T15:23:19;31.30;87.80
14008;DHT22;61651;45.508;12.232;2023-08-30T15:26:21;30.90;84.40
14008;DHT22;61651;45.508;12.232;2023-08-30T15:29:24;30.40;86.40
14008;DHT22;61651;45.508;12.232;2023-08-30T15:32:26;29.70;86.20
14008;DHT22;61651;45.508;12.232;2023-08-30T15:35:29;29.50;88.80
14008;DHT22;61651;45.508;12.232;2023-08-30T15:38:31;29.20;90.00
14008;DHT22;61651;45.508;12.232;2023-08-30T15:41:34;28.90;89.90
14008;DHT22;61651;45.508;12.232;2023-08-30T15:44:38;28.60;90.30
14008;DHT22;61651;45.508;12.232;2023-08-30T15:47:40;28.50;89.70
14008;DHT22;61651;45.508;12.232;2023-08-30T15:50:42;28.20;89.50
14008;DHT22;61651;45.508;12.232;2023-08-30T15:53:44;28.00;90.20
14008;DHT22;61651;45.508;12.232;2023-08-30T15:56:46;27.80;91.30
14008;DHT22;61651;45.508;12.232;2023-08-30T15:59:50;27.70;91.00
14008;DHT22;61651;45.508;12.232;2023-08-30T16:02:52;27.50;91.40
14008;DHT22;61651;45.508;12.232;2023-08-30T16:05:56;27.50;91.90
14008;DHT22;61651;45.508;12.232;2023-08-30T16:08:58;27.30;91.20
14008;DHT22;61651;45.508;12.232;2023-08-30T16:12:00;27.30;91.40
14008;DHT22;61651;45.508;12.232;2023-08-30T16:15:04;27.20;91.70
14008;DHT22;61651;45.508;12.232;2023-08-30T16:18:06;27.10;91.50
14008;DHT22;61651;45.508;12.232;2023-08-30T16:21:08;26.90;91.10
14008;DHT22;61651;45.508;12.232;2023-08-30T16:24:10;26.70;91.80
14008;DHT22;61651;45.508;12.232;2023-08-30T16:27:12;26.60;91.60
14008;DHT22;61651;45.508;12.232;2023-08-30T16:30:16;26.60;92.50
14008;DHT22;61651;45.508;12.232;2023-08-30T16:33:18;26.50;92.20
14008;DHT22;61651;45.508;12.232;2023-08-30T16:36:20;26.40;92.60
14008;DHT22;61651;45.508;12.232;2023-08-30T16:39:22;26.40;92.90
14008;DHT22;61651;45.508;12.232;2023-08-30T16:42:25;26.40;93.20
14008;DHT22;61651;45.508;12.232;2023-08-30T16:45:28;26.30;92.80
14008;DHT22;61651;45.508;12.232;2023-08-30T16:48:30;26.20;93.20
14008;DHT22;61651;45.508;12.232;2023-08-30T16:51:32;26.20;93.60
14008;DHT22;61651;45.508;12.232;2023-08-30T16:54:34;26.10;93.60
14008;DHT22;61651;45.508;12.232;2023-08-30T16:57:37;26.00;94.20
14008;DHT22;61651;45.508;12.232;2023-08-30T17:00:40;26.00;94.50
14008;DHT22;61651;45.508;12.232;2023-08-30T17:03:42;25.90;94.10
14008;DHT22;61651;45.508;12.232;2023-08-30T17:06:44;25.90;93.90
14008;DHT22;61651;45.508;12.232;2023-08-30T17:09:46;25.80;94.80
14008;DHT22;61651;45.508;12.232;2023-08-30T17:12:48;25.70;95.50
14008;DHT22;61651;45.508;12.232;2023-08-30T17:15:54;25.60;95.70
14008;DHT22;61651;45.508;12.232;2023-08-30T17:18:58;25.50;96.40
14008;DHT22;61651;45.508;12.232;2023-08-30T17:22:00;25.50;96.60
14008;DHT22;61651;45.508;12.232;2023-08-30T17:25:03;25.40;96.50
14008;DHT22;61651;45.508;12.232;2023-08-30T17:28:06;25.40;96.20
14008;DHT22;61651;45.508;12.232;2023-08-30T17:31:09;25.30;96.10
14008;DHT22;61651;45.508;12.232;2023-08-30T17:34:11;25.20;96.30
14008;DHT22;61651;45.508;12.232;2023-08-30T17:37:13;25.10;96.50
14008;DHT22;61651;45.508;12.232;2023-08-30T17:40:15;25.10;96.40
14008;DHT22;61651;45.508;12.232;2023-08-30T17:43:18;25.00;96.40
14008;DHT22;61651;45.508;12.232;2023-08-30T17:46:22;24.90;96.80
14008;DHT22;61651;45.508;12.232;2023-08-30T17:49:24;24.70;95.90
14008;DHT22;61651;45.508;12.232;2023-08-30T17:52:26;24.60;96.30
14008;DHT22;61651;45.508;12.232;2023-08-30T17:55:28;24.60;96.50
14008;DHT22;61651;45.508;12.232;2023-08-30T17:58:31;24.60;96.50
14008;DHT22;61651;45.508;12.232;2023-08-30T18:01:34;24.60;96.90
14008;DHT22;61651;45.508;12.232;2023-08-30T18:04:37;24.60;96.50
14008;DHT22;61651;45.508;12.232;2023-08-30T18:07:39;24.60;96.40
14008;DHT22;61651;45.508;12.232;2023-08-30T18:10:41;24.50;96.30
14008;DHT22;61651;45.508;12.232;2023-08-30T18:13:44;24.50;96.40
14008;DHT22;61651;45.508;12.232;2023-08-30T18:16:48;24.40;96.40
14008;DHT22;61651;45.508;12.232;2023-08-30T18:19:50;24.40;96.30
14008;DHT22;61651;45.508;12.232;2023-08-30T18:22:52;24.40;96.60
14008;DHT22;61651;45.508;12.232;2023-08-30T18:25:54;24.30;96.20
14008;DHT22;61651;45.508;12.232;2023-08-30T18:28:56;24.30;96.10
14008;DHT22;61651;45.508;12.232;2023-08-30T18:32:01;24.20;96.20
14008;DHT22;61651;45.508;12.232;2023-08-30T18:35:04;24.10;96.20
14008;DHT22;61651;45.508;12.232;2023-08-30T18:38:06;24.10;96.40
14008;DHT22;61651;45.508;12.232;2023-08-30T18:41:08;24.00;96.40
14008;DHT22;61651;45.508;12.232;2023-08-30T18:44:15;23.90;96.50
14008;DHT22;61651;45.508;12.232;2023-08-30T18:47:19;23.90;96.90
14008;DHT22;61651;45.508;12.232;2023-08-30T18:50:21;23.90;97.60
14008;DHT22;61651;45.508;12.232;2023-08-30T18:53:23;23.90;97.70
14008;DHT22;61651;45.508;12.232;2023-08-30T18:56:25;23.80;97.40
14008;DHT22;61651;45.508;12.232;2023-08-30T18:59:28;23.70;97.40
14008;DHT22;61651;45.508;12.232;2023-08-30T19:02:31;23.70;97.70
14008;DHT22;61651;45.508;12.232;2023-08-30T19:05:33;23.60;98.00
14008;DHT22;61651;45.508;12.232;2023-08-30T19:08:40;23.60;98.10
14008;DHT22;61651;45.508;12.232;2023-08-30T19:11:41;23.50;97.90
14008;DHT22;61651;45.508;12.232;2023-08-30T19:14:43;23.50;98.00
14008;DHT22;61651;45.508;12.232;2023-08-30T19:17:47;23.40;98.30
14008;DHT22;61651;45.508;12.232;2023-08-30T19:20:54;23.30;98.40
14008;DHT22;61651;45.508;12.232;2023-08-30T19:23:57;23.30;98.40
14008;DHT22;61651;45.508;12.232;2023-08-30T19:26:59;23.20;98.20
14008;DHT22;61651;45.508;12.232;2023-08-30T19:30:01;23.20;98.50
14008;DHT22;61651;45.508;12.232;2023-08-30T19:33:04;22.70;99.10
14008;DHT22;61651;45.508;12.232;2023-08-30T19:36:06;22.50;99.50
14008;DHT22;61651;45.508;12.232;2023-08-30T19:39:08;22.60;99.70
14008;DHT22;61651;45.508;12.232;2023-08-30T19:42:10;22.70;99.90
14008;DHT22;61651;45.508;12.232;2023-08-30T19:45:12;22.80;99.90
14008;DHT22;61651;45.508;12.232;2023-08-30T19:48:18;22.80;99.90
14008;DHT22;61651;45.508;12.232;2023-08-30T19:51:20;22.80;99.90
14008;DHT22;61651;45.508;12.232;2023-08-30T19:54:24;22.80;99.90
14008;DHT22;61651;45.508;12.232;2023-08-30T19:57:26;22.70;99.90
14008;DHT22;61651;45.508;12.232;2023-08-30T20:00:29;22.70;99.90
14008;DHT22;61651;45.508;12.232;2023-08-30T20:03:33;22.70;99.90
14008;DHT22;61651;45.508;12.232;2023-08-30T20:06:35;22.70;99.90
14008;DHT22;61651;45.508;12.232;2023-08-30T20:09:38;22.60;99.90
14008;DHT22;61651;45.508;12.232;2023-08-30T20:12:40;22.60;99.90
14008;DHT22;61651;45.508;12.232;2023-08-30T20:15:42;22.60;99.90
14008;DHT22;61651;45.508;12.232;2023-08-30T20:18:46;22.50;99.90
14008;DHT22;61651;45.508;12.232;2023-08-30T20:21:48;22.50;99.90
14008;DHT22;61651;45.508;12.232;2023-08-30T20:24:50;22.50;99.90
14008;DHT22;61651;45.508;12.232;2023-08-30T20:27:52;22.50;99.90
14008;DHT22;61651;45.508;12.232;2023-08-30T20:30:54;22.40;99.90
14008;DHT22;61651;45.508;12.232;2023-08-30T20:33:57;22.40;99.90